sensor_id;sensor_type;location;lat;lon;timestamp;temperature;humidity
20610;DHT22;10463;52.378;9.688;2022-12-15T00:01:37;19.00;20.90
20610;DHT22;10463;52.378;9.688;2022-12-15T00:04:40;19.00;20.90
20610;DHT22;10463;52.378;9.688;2022-12-15T00:07:44;19.10;21.00
20610;DHT22;10463;52.378;9.688;2022-12-15T00:10:47;19.10;21.00
20610;DHT22;10463;52.378;9.688;2022-12-15T00:13:52;19.10;21.00
20610;DHT22;10463;52.378;9.688;2022-12-15T00:16:56;19.10;21.00
20610;DHT22;10463;52.378;9.688;2022-12-15T00:19:59;19.10;21.50
20610;DHT22;10463;52.378;9.688;2022-12-15T00:23:07;19.10;21.00
20610;DHT22;10463;52.378;9.688;2022-12-15T00:26:11;19.10;20.90
20610;DHT22;10463;52.378;9.688;2022-12-15T00:29:16;19.10;20.90
20610;DHT22;10463;52.378;9.688;2022-12-15T00:32:21;19.10;21.00
20610;DHT22;10463;52.378;9.688;2022-12-15T00:35:24;19.10;21.50
20610;DHT22;10463;52.378;9.688;2022-12-15T00:38:27;19.10;20.90
20610;DHT22;10463;52.378;9.688;2022-12-15T00:41:27;19.20;21.00
20610;DHT22;10463;52.378;9.688;2022-12-15T00:44:12;19.20;21.00
20610;DHT22;10463;52.378;9.688;2022-12-15T00:46:58;19.20;21.00
20610;DHT22;10463;52.378;9.688;2022-12-15T00:49:43;19.10;20.90
20610;DHT22;10463;52.378;9.688;2022-12-15T00:52:46;19.10;20.90
20610;DHT22;10463;52.378;9.688;2022-12-15T00:55:50;19.10;20.90
20610;DHT22;10463;52.378;9.688;2022-12-15T00:58:54;19.20;21.00
20610;DHT22;10463;52.378;9.688;2022-12-15T01:02:01;19.20;21.00
20610;DHT22;10463;52.378;9.688;2022-12-15T01:05:05;19.20;21.00
20610;DHT22;10463;52.378;9.688;2022-12-15T01:08:09;19.20;21.00
20610;DHT22;10463;52.378;9.688;2022-12-15T01:11:12;19.20;21.20
20610;DHT22;10463;52.378;9.688;2022-12-15T01:14:16;19.20;21.20
20610;DHT22;10463;52.378;9.688;2022-12-15T01:17:21;19.20;21.30
20610;DHT22;10463;52.378;9.688;2022-12-15T01:20:24;19.20;21.20
20610;DHT22;10463;52.378;9.688;2022-12-15T01:23:09;19.20;21.20
20610;DHT22;10463;52.378;9.688;2022-12-15T01:25:54;19.10;21.10
20610;DHT22;10463;52.378;9.688;2022-12-15T01:28:39;19.10;21.10
20610;DHT22;10463;52.378;9.688;2022-12-15T01:31:23;19.20;21.20
20610;DHT22;10463;52.378;9.688;2022-12-15T01:34:09;19.20;21.20
20610;DHT22;10463;52.378;9.688;2022-12-15T01:36:54;19.20;21.20
20610;DHT22;10463;52.378;9.688;2022-12-15T01:39:38;19.20;21.20
20610;DHT22;10463;52.378;9.688;2022-12-15T01:42:41;19.20;21.20
20610;DHT22;10463;52.378;9.688;2022-12-15T01:45:52;19.20;21.20
20610;DHT22;10463;52.378;9.688;2022-12-15T01:48:45;19.10;21.00
20610;DHT22;10463;52.378;9.688;2022-12-15T01:51:33;19.10;21.00
20610;DHT22;10463;52.378;9.688;2022-12-15T01:54:21;19.20;21.10
20610;DHT22;10463;52.378;9.688;2022-12-15T01:57:11;19.10;21.00
20610;DHT22;10463;52.378;9.688;2022-12-15T02:00:01;19.10;21.00
20610;DHT22;10463;52.378;9.688;2022-12-15T02:02:46;19.10;21.00
20610;DHT22;10463;52.378;9.688;2022-12-15T02:05:32;19.10;21.00
20610;DHT22;10463;52.378;9.688;2022-12-15T02:08:18;19.10;21.00
20610;DHT22;10463;52.378;9.688;2022-12-15T02:11:37;19.10;21.00
20610;DHT22;10463;52.378;9.688;2022-12-15T02:14:35;19.10;21.00
20610;DHT22;10463;52.378;9.688;2022-12-15T02:17:33;19.10;21.00
20610;DHT22;10463;52.378;9.688;2022-12-15T02:20:47;19.10;21.00
20610;DHT22;10463;52.378;9.688;2022-12-15T02:24:10;19.10;21.00
20610;DHT22;10463;52.378;9.688;2022-12-15T02:27:49;19.10;21.00
20610;DHT22;10463;52.378;9.688;2022-12-15T02:30:46;19.10;21.00
20610;DHT22;10463;52.378;9.688;2022-12-15T02:33:56;19.10;21.00
20610;DHT22;10463;52.378;9.688;2022-12-15T02:36:47;19.00;21.20
20610;DHT22;10463;52.378;9.688;2022-12-15T02:39:33;19.00;21.00
20610;DHT22;10463;52.378;9.688;2022-12-15T02:42:17;19.00;21.00
20610;DHT22;10463;52.378;9.688;2022-12-15T02:45:07;19.00;21.00
20610;DHT22;10463;52.378;9.688;2022-12-15T02:48:03;19.00;21.00
20610;DHT22;10463;52.378;9.688;2022-12-15T02:51:10;19.00;21.00
20610;DHT22;10463;52.378;9.688;2022-12-15T02:54:30;19.00;21.10
20610;DHT22;10463;52.378;9.688;2022-12-15T02:57:24;19.00;21.00
20610;DHT22;10463;52.378;9.688;2022-12-15T03:00:12;19.00;21.00
20610;DHT22;10463;52.378;9.688;2022-12-15T03:03:00;19.00;21.00
20610;DHT22;10463;52.378;9.688;2022-12-15T03:05:45;19.00;21.00
20610;DHT22;10463;52.378;9.688;2022-12-15T03:08:30;19.00;21.00
20610;DHT22;10463;52.378;9.688;2022-12-15T03:11:15;19.00;21.00
20610;DHT22;10463;52.378;9.688;2022-12-15T03:13:59;19.00;21.00
20610;DHT22;10463;52.378;9.688;2022-12-15T03:16:44;19.00;21.00
20610;DHT22;10463;52.378;9.688;2022-12-15T03:19:30;19.00;21.00
20610;DHT22;10463;52.378;9.688;2022-12-15T03:22:14;19.00;21.00
20610;DHT22;10463;52.378;9.688;2022-12-15T03:24:59;19.00;21.00
20610;DHT22;10463;52.378;9.688;2022-12-15T03:27:45;19.00;21.00
20610;DHT22;10463;52.378;9.688;2022-12-15T03:30:29;18.90;21.50
20610;DHT22;10463;52.378;9.688;2022-12-15T03:33:15;18.90;21.00
20610;DHT22;10463;52.378;9.688;2022-12-15T03:36:01;18.90;21.00
20610;DHT22;10463;52.378;9.688;2022-12-15T03:38:46;18.90;21.00
20610;DHT22;10463;52.378;9.688;2022-12-15T03:41:30;18.90;21.00
20610;DHT22;10463;52.378;9.688;2022-12-15T03:44:15;18.90;21.00
20610;DHT22;10463;52.378;9.688;2022-12-15T03:47:00;18.90;21.00
20610;DHT22;10463;52.378;9.688;2022-12-15T03:49:44;18.90;21.00
20610;DHT22;10463;52.378;9.688;2022-12-15T03:52:30;18.90;21.00
20610;DHT22;10463;52.378;9.688;2022-12-15T03:55:15;18.90;21.00
20610;DHT22;10463;52.378;9.688;2022-12-15T03:58:00;18.90;21.00
20610;DHT22;10463;52.378;9.688;2022-12-15T04:00:45;18.90;21.00
20610;DHT22;10463;52.378;9.688;2022-12-15T04:03:29;18.90;21.00
20610;DHT22;10463;52.378;9.688;2022-12-15T04:06:14;18.90;21.00
20610;DHT22;10463;52.378;9.688;2022-12-15T04:09:00;18.90;21.00
20610;DHT22;10463;52.378;9.688;2022-12-15T04:11:45;18.90;21.00
20610;DHT22;10463;52.378;9.688;2022-12-15T04:14:29;18.90;21.00
20610;DHT22;10463;52.378;9.688;2022-12-15T04:17:14;18.90;21.10
20610;DHT22;10463;52.378;9.688;2022-12-15T04:19:59;18.90;21.10
20610;DHT22;10463;52.378;9.688;2022-12-15T04:22:52;18.80;21.00
20610;DHT22;10463;52.378;9.688;2022-12-15T04:25:39;18.80;21.00
20610;DHT22;10463;52.378;9.688;2022-12-15T04:28:42;18.80;21.00
20610;DHT22;10463;52.378;9.688;2022-12-15T04:31:46;18.80;21.00
20610;DHT22;10463;52.378;9.688;2022-12-15T04:34:49;18.80;21.10
20610;DHT22;10463;52.378;9.688;2022-12-15T04:37:52;18.80;21.10
20610;DHT22;10463;52.378;9.688;2022-12-15T04:40:57;18.80;21.10
20610;DHT22;10463;52.378;9.688;2022-12-15T04:44:01;18.80;21.10
20610;DHT22;10463;52.378;9.688;2022-12-15T04:47:04;18.80;21.10
20610;DHT22;10463;52.378;9.688;2022-12-15T04:50:08;18.80;21.10
20610;DHT22;10463;52.378;9.688;2022-12-15T04:53:15;18.70;21.10
20610;DHT22;10463;52.378;9.688;2022-12-15T04:56:20;18.70;21.10
20610;DHT22;10463;52.378;9.688;2022-12-15T04:59:23;18.70;21.10
20610;DHT22;10463;52.378;9.688;2022-12-15T05:02:27;18.70;21.20
20610;DHT22;10463;52.378;9.688;2022-12-15T05:05:30;18.70;21.20
20610;DHT22;10463;52.378;9.688;2022-12-15T05:08:34;18.70;21.20
20610;DHT22;10463;52.378;9.688;2022-12-15T05:11:39;18.70;21.20
20610;DHT22;10463;52.378;9.688;2022-12-15T05:14:42;18.70;21.30
20610;DHT22;10463;52.378;9.688;2022-12-15T05:17:45;18.70;21.40
20610;DHT22;10463;52.378;9.688;2022-12-15T05:20:49;18.70;21.40
20610;DHT22;10463;52.378;9.688;2022-12-15T05:23:52;18.70;21.50
20610;DHT22;10463;52.378;9.688;2022-12-15T05:26:57;18.70;21.50
20610;DHT22;10463;52.378;9.688;2022-12-15T05:30:00;18.70;21.50
20610;DHT22;10463;52.378;9.688;2022-12-15T05:33:04;18.70;21.50
20610;DHT22;10463;52.378;9.688;2022-12-15T05:35:49;18.70;21.40
20610;DHT22;10463;52.378;9.688;2022-12-15T05:38:34;18.70;21.40
20610;DHT22;10463;52.378;9.688;2022-12-15T05:41:19;18.70;21.40
20610;DHT22;10463;52.378;9.688;2022-12-15T05:44:06;18.70;21.40
20610;DHT22;10463;52.378;9.688;2022-12-15T05:46:50;18.70;21.40
20610;DHT22;10463;52.378;9.688;2022-12-15T05:49:35;18.70;21.30
20610;DHT22;10463;52.378;9.688;2022-12-15T05:52:20;18.80;21.30
20610;DHT22;10463;52.378;9.688;2022-12-15T05:55:05;18.80;21.90
20610;DHT22;10463;52.378;9.688;2022-12-15T05:57:51;18.80;21.30
20610;DHT22;10463;52.378;9.688;2022-12-15T06:00:37;18.80;21.30
20610;DHT22;10463;52.378;9.688;2022-12-15T06:03:22;18.80;21.30
20610;DHT22;10463;52.378;9.688;2022-12-15T06:06:08;18.80;21.30
20610;DHT22;10463;52.378;9.688;2022-12-15T06:08:53;18.80;21.30
20610;DHT22;10463;52.378;9.688;2022-12-15T06:11:38;18.80;21.30
20610;DHT22;10463;52.378;9.688;2022-12-15T06:14:23;18.80;21.20
20610;DHT22;10463;52.378;9.688;2022-12-15T06:17:09;18.80;21.20
20610;DHT22;10463;52.378;9.688;2022-12-15T06:19:53;18.80;21.20
20610;DHT22;10463;52.378;9.688;2022-12-15T06:22:38;18.80;21.10
20610;DHT22;10463;52.378;9.688;2022-12-15T06:25:23;18.80;21.70
20610;DHT22;10463;52.378;9.688;2022-12-15T06:28:07;18.80;21.30
20610;DHT22;10463;52.378;9.688;2022-12-15T06:30:53;18.80;21.30
20610;DHT22;10463;52.378;9.688;2022-12-15T06:33:40;18.80;21.20
20610;DHT22;10463;52.378;9.688;2022-12-15T06:36:25;18.80;21.70
20610;DHT22;10463;52.378;9.688;2022-12-15T06:39:12;18.80;21.20
20610;DHT22;10463;52.378;9.688;2022-12-15T06:41:57;18.90;21.20
20610;DHT22;10463;52.378;9.688;2022-12-15T06:44:41;18.90;21.20
20610;DHT22;10463;52.378;9.688;2022-12-15T06:47:26;18.90;21.20
20610;DHT22;10463;52.378;9.688;2022-12-15T06:50:12;18.90;21.10
20610;DHT22;10463;52.378;9.688;2022-12-15T06:52:58;18.80;21.00
20610;DHT22;10463;52.378;9.688;2022-12-15T06:55:44;18.90;21.00
20610;DHT22;10463;52.378;9.688;2022-12-15T06:58:29;18.80;20.90
20610;DHT22;10463;52.378;9.688;2022-12-15T07:01:14;18.90;21.50
20610;DHT22;10463;52.378;9.688;2022-12-15T07:04:00;18.90;21.00
20610;DHT22;10463;52.378;9.688;2022-12-15T07:06:47;18.90;21.00
20610;DHT22;10463;52.378;9.688;2022-12-15T07:09:32;18.90;20.90
20610;DHT22;10463;52.378;9.688;2022-12-15T07:12:17;18.80;20.80
20610;DHT22;10463;52.378;9.688;2022-12-15T07:15:03;18.90;20.90
20610;DHT22;10463;52.378;9.688;2022-12-15T07:17:48;18.90;20.90
20610;DHT22;10463;52.378;9.688;2022-12-15T07:20:33;18.90;20.80
20610;DHT22;10463;52.378;9.688;2022-12-15T07:23:19;18.80;20.80
20610;DHT22;10463;52.378;9.688;2022-12-15T07:26:04;18.80;20.80
20610;DHT22;10463;52.378;9.688;2022-12-15T07:28:49;18.80;20.80
20610;DHT22;10463;52.378;9.688;2022-12-15T07:31:34;18.80;20.70
20610;DHT22;10463;52.378;9.688;2022-12-15T07:34:19;18.80;20.70
20610;DHT22;10463;52.378;9.688;2022-12-15T07:37:04;18.80;20.70
20610;DHT22;10463;52.378;9.688;2022-12-15T07:39:50;18.80;20.70
20610;DHT22;10463;52.378;9.688;2022-12-15T07:42:34;18.80;20.70
20610;DHT22;10463;52.378;9.688;2022-12-15T07:45:19;18.80;20.70
20610;DHT22;10463;52.378;9.688;2022-12-15T07:48:05;18.80;20.70
20610;DHT22;10463;52.378;9.688;2022-12-15T07:50:50;18.80;20.70
20610;DHT22;10463;52.378;9.688;2022-12-15T07:53:40;18.80;21.20
20610;DHT22;10463;52.378;9.688;2022-12-15T07:56:26;18.80;20.70
20610;DHT22;10463;52.378;9.688;2022-12-15T07:59:11;18.80;20.70
20610;DHT22;10463;52.378;9.688;2022-12-15T08:01:55;18.80;20.60
20610;DHT22;10463;52.378;9.688;2022-12-15T08:04:40;18.80;20.60
20610;DHT22;10463;52.378;9.688;2022-12-15T08:07:24;18.70;20.60
20610;DHT22;10463;52.378;9.688;2022-12-15T08:10:09;18.80;20.60
20610;DHT22;10463;52.378;9.688;2022-12-15T08:12:55;18.80;20.60
20610;DHT22;10463;52.378;9.688;2022-12-15T08:15:40;18.70;20.60
20610;DHT22;10463;52.378;9.688;2022-12-15T08:18:25;18.70;20.50
20610;DHT22;10463;52.378;9.688;2022-12-15T08:21:10;18.70;20.60
20610;DHT22;10463;52.378;9.688;2022-12-15T08:23:55;18.70;20.60
20610;DHT22;10463;52.378;9.688;2022-12-15T08:26:42;18.70;20.70
20610;DHT22;10463;52.378;9.688;2022-12-15T08:29:28;18.70;20.90
20610;DHT22;10463;52.378;9.688;2022-12-15T08:32:13;18.70;21.00
20610;DHT22;10463;52.378;9.688;2022-12-15T08:34:58;18.70;21.10
20610;DHT22;10463;52.378;9.688;2022-12-15T08:37:42;18.70;21.20
20610;DHT22;10463;52.378;9.688;2022-12-15T08:40:27;18.70;21.30
20610;DHT22;10463;52.378;9.688;2022-12-15T08:43:11;18.80;21.40
20610;DHT22;10463;52.378;9.688;2022-12-15T08:45:58;18.70;21.40
20610;DHT22;10463;52.378;9.688;2022-12-15T08:48:44;18.80;21.50
20610;DHT22;10463;52.378;9.688;2022-12-15T08:51:31;18.70;21.40
20610;DHT22;10463;52.378;9.688;2022-12-15T08:54:17;18.80;21.50
20610;DHT22;10463;52.378;9.688;2022-12-15T08:57:03;18.80;22.00
20610;DHT22;10463;52.378;9.688;2022-12-15T08:59:48;18.80;21.50
20610;DHT22;10463;52.378;9.688;2022-12-15T09:02:34;18.80;21.40
20610;DHT22;10463;52.378;9.688;2022-12-15T09:05:18;18.90;21.40
20610;DHT22;10463;52.378;9.688;2022-12-15T09:08:05;18.90;21.50
20610;DHT22;10463;52.378;9.688;2022-12-15T09:10:49;18.90;21.40
20610;DHT22;10463;52.378;9.688;2022-12-15T09:13:35;18.90;21.50
20610;DHT22;10463;52.378;9.688;2022-12-15T09:16:20;18.90;21.50
20610;DHT22;10463;52.378;9.688;2022-12-15T09:19:08;19.00;21.60
20610;DHT22;10463;52.378;9.688;2022-12-15T09:21:53;19.00;21.50
20610;DHT22;10463;52.378;9.688;2022-12-15T09:24:37;19.00;21.50
20610;DHT22;10463;52.378;9.688;2022-12-15T09:27:22;19.00;21.50
20610;DHT22;10463;52.378;9.688;2022-12-15T09:30:09;19.00;21.50
20610;DHT22;10463;52.378;9.688;2022-12-15T09:32:53;19.00;21.50
20610;DHT22;10463;52.378;9.688;2022-12-15T09:35:39;19.10;21.50
20610;DHT22;10463;52.378;9.688;2022-12-15T09:38:25;19.10;21.50
20610;DHT22;10463;52.378;9.688;2022-12-15T09:41:20;19.20;21.60
20610;DHT22;10463;52.378;9.688;2022-12-15T09:44:12;19.10;21.60
20610;DHT22;10463;52.378;9.688;2022-12-15T09:47:12;19.20;21.80
20610;DHT22;10463;52.378;9.688;2022-12-15T09:50:02;19.20;21.90
20610;DHT22;10463;52.378;9.688;2022-12-15T09:52:51;19.20;22.10
20610;DHT22;10463;52.378;9.688;2022-12-15T09:55:37;19.30;22.20
20610;DHT22;10463;52.378;9.688;2022-12-15T09:58:35;19.30;22.20
20610;DHT22;10463;52.378;9.688;2022-12-15T10:01:30;19.30;22.40
20610;DHT22;10463;52.378;9.688;2022-12-15T10:04:26;19.40;23.10
20610;DHT22;10463;52.378;9.688;2022-12-15T10:07:23;19.40;22.60
20610;DHT22;10463;52.378;9.688;2022-12-15T10:10:16;19.50;22.80
20610;DHT22;10463;52.378;9.688;2022-12-15T10:13:22;19.60;23.40
20610;DHT22;10463;52.378;9.688;2022-12-15T10:16:20;19.60;22.90
20610;DHT22;10463;52.378;9.688;2022-12-15T10:19:11;19.70;22.90
20610;DHT22;10463;52.378;9.688;2022-12-15T10:21:57;19.80;22.90
20610;DHT22;10463;52.378;9.688;2022-12-15T10:24:42;19.80;22.80
20610;DHT22;10463;52.378;9.688;2022-12-15T10:27:47;19.90;22.80
20610;DHT22;10463;52.378;9.688;2022-12-15T10:30:37;20.00;22.80
20610;DHT22;10463;52.378;9.688;2022-12-15T10:33:25;20.00;22.80
20610;DHT22;10463;52.378;9.688;2022-12-15T10:36:13;20.00;22.90
20610;DHT22;10463;52.378;9.688;2022-12-15T10:38:58;20.10;23.40
20610;DHT22;10463;52.378;9.688;2022-12-15T10:41:43;20.20;22.90
20610;DHT22;10463;52.378;9.688;2022-12-15T10:44:36;20.20;22.80
20610;DHT22;10463;52.378;9.688;2022-12-15T10:47:24;20.20;22.70
20610;DHT22;10463;52.378;9.688;2022-12-15T10:50:20;20.30;22.70
20610;DHT22;10463;52.378;9.688;2022-12-15T10:53:08;20.30;22.70
20610;DHT22;10463;52.378;9.688;2022-12-15T10:55:58;20.30;22.60
20610;DHT22;10463;52.378;9.688;2022-12-15T10:58:48;20.40;22.60
20610;DHT22;10463;52.378;9.688;2022-12-15T11:01:35;20.40;22.50
20610;DHT22;10463;52.378;9.688;2022-12-15T11:04:26;20.50;22.60
20610;DHT22;10463;52.378;9.688;2022-12-15T11:07:12;20.50;22.50
20610;DHT22;10463;52.378;9.688;2022-12-15T11:09:58;20.60;22.50
20610;DHT22;10463;52.378;9.688;2022-12-15T11:12:53;20.60;22.40
20610;DHT22;10463;52.378;9.688;2022-12-15T11:15:43;20.70;22.50
20610;DHT22;10463;52.378;9.688;2022-12-15T11:18:39;20.70;22.40
20610;DHT22;10463;52.378;9.688;2022-12-15T11:21:27;20.80;22.40
20610;DHT22;10463;52.378;9.688;2022-12-15T11:24:15;20.90;22.40
20610;DHT22;10463;52.378;9.688;2022-12-15T11:27:12;20.90;22.30
20610;DHT22;10463;52.378;9.688;2022-12-15T11:30:09;21.00;22.30
20610;DHT22;10463;52.378;9.688;2022-12-15T11:32:58;21.00;22.20
20610;DHT22;10463;52.378;9.688;2022-12-15T11:35:57;21.10;22.20
20610;DHT22;10463;52.378;9.688;2022-12-15T11:38:48;21.10;22.10
20610;DHT22;10463;52.378;9.688;2022-12-15T11:41:41;21.20;22.10
20610;DHT22;10463;52.378;9.688;2022-12-15T11:44:34;21.20;22.00
20610;DHT22;10463;52.378;9.688;2022-12-15T11:47:30;21.20;22.00
20610;DHT22;10463;52.378;9.688;2022-12-15T11:50:26;21.20;21.90
20610;DHT22;10463;52.378;9.688;2022-12-15T11:53:41;21.20;21.90
20610;DHT22;10463;52.378;9.688;2022-12-15T11:56:34;21.20;22.30
20610;DHT22;10463;52.378;9.688;2022-12-15T11:59:44;21.20;21.80
20610;DHT22;10463;52.378;9.688;2022-12-15T12:03:16;21.30;21.80
20610;DHT22;10463;52.378;9.688;2022-12-15T12:06:11;21.30;21.80
20610;DHT22;10463;52.378;9.688;2022-12-15T12:09:27;21.30;21.80
20610;DHT22;10463;52.378;9.688;2022-12-15T12:12:22;21.30;21.80
20610;DHT22;10463;52.378;9.688;2022-12-15T12:15:25;21.30;21.90
20610;DHT22;10463;52.378;9.688;2022-12-15T12:18:18;21.30;22.00
20610;DHT22;10463;52.378;9.688;2022-12-15T12:21:09;21.30;22.10
20610;DHT22;10463;52.378;9.688;2022-12-15T12:24:00;21.30;22.20
20610;DHT22;10463;52.378;9.688;2022-12-15T12:26:52;21.30;22.20
20610;DHT22;10463;52.378;9.688;2022-12-15T12:29:44;21.40;22.90
20610;DHT22;10463;52.378;9.688;2022-12-15T12:32:40;21.40;22.40
20610;DHT22;10463;52.378;9.688;2022-12-15T12:35:35;21.40;22.40
20610;DHT22;10463;52.378;9.688;2022-12-15T12:38:25;21.40;22.50
20610;DHT22;10463;52.378;9.688;2022-12-15T12:41:20;21.40;22.40
20610;DHT22;10463;52.378;9.688;2022-12-15T12:44:14;21.50;22.40
20610;DHT22;10463;52.378;9.688;2022-12-15T12:47:11;21.50;22.50
20610;DHT22;10463;52.378;9.688;2022-12-15T12:50:00;21.50;23.00
20610;DHT22;10463;52.378;9.688;2022-12-15T12:52:49;21.50;22.60
20610;DHT22;10463;52.378;9.688;2022-12-15T12:55:39;21.50;22.70
20610;DHT22;10463;52.378;9.688;2022-12-15T12:58:33;21.60;22.80
20610;DHT22;10463;52.378;9.688;2022-12-15T13:01:30;21.60;23.30
20610;DHT22;10463;52.378;9.688;2022-12-15T13:04:39;21.60;22.80
20610;DHT22;10463;52.378;9.688;2022-12-15T13:07:31;21.60;22.90
20610;DHT22;10463;52.378;9.688;2022-12-15T13:10:20;21.60;22.90
20610;DHT22;10463;52.378;9.688;2022-12-15T13:13:33;21.60;23.40
20610;DHT22;10463;52.378;9.688;2022-12-15T13:16:23;21.60;22.90
20610;DHT22;10463;52.378;9.688;2022-12-15T13:19:11;21.60;22.90
20610;DHT22;10463;52.378;9.688;2022-12-15T13:21:56;21.70;23.00
20610;DHT22;10463;52.378;9.688;2022-12-15T13:24:46;21.70;23.00
20610;DHT22;10463;52.378;9.688;2022-12-15T13:27:34;21.70;22.90
20610;DHT22;10463;52.378;9.688;2022-12-15T13:30:20;21.70;22.90
20610;DHT22;10463;52.378;9.688;2022-12-15T13:33:17;21.70;22.90
20610;DHT22;10463;52.378;9.688;2022-12-15T13:36:04;21.80;23.00
20610;DHT22;10463;52.378;9.688;2022-12-15T13:38:54;21.80;22.90
20610;DHT22;10463;52.378;9.688;2022-12-15T13:41:41;21.80;22.90
20610;DHT22;10463;52.378;9.688;2022-12-15T13:44:30;21.80;22.90
20610;DHT22;10463;52.378;9.688;2022-12-15T13:47:21;21.80;22.90
20610;DHT22;10463;52.378;9.688;2022-12-15T13:50:12;21.80;22.80
20610;DHT22;10463;52.378;9.688;2022-12-15T13:53:01;21.80;22.80
20610;DHT22;10463;52.378;9.688;2022-12-15T13:56:04;21.80;22.80
20610;DHT22;10463;52.378;9.688;2022-12-15T13:58:58;21.80;22.70
20610;DHT22;10463;52.378;9.688;2022-12-15T14:01:49;21.90;22.70
20610;DHT22;10463;52.378;9.688;2022-12-15T14:04:34;21.90;22.80
20610;DHT22;10463;52.378;9.688;2022-12-15T14:07:18;21.90;22.80
20610;DHT22;10463;52.378;9.688;2022-12-15T14:10:17;21.90;22.80
20610;DHT22;10463;52.378;9.688;2022-12-15T14:13:11;21.90;22.80
20610;DHT22;10463;52.378;9.688;2022-12-15T14:15:59;21.90;22.80
20610;DHT22;10463;52.378;9.688;2022-12-15T14:19:07;21.90;22.80
20610;DHT22;10463;52.378;9.688;2022-12-15T14:21:57;21.90;22.70
20610;DHT22;10463;52.378;9.688;2022-12-15T14:24:46;21.90;22.70
20610;DHT22;10463;52.378;9.688;2022-12-15T14:27:33;21.90;22.70
20610;DHT22;10463;52.378;9.688;2022-12-15T14:30:22;21.90;22.70
20610;DHT22;10463;52.378;9.688;2022-12-15T14:33:11;21.90;22.60
20610;DHT22;10463;52.378;9.688;2022-12-15T14:35:57;21.90;22.60
20610;DHT22;10463;52.378;9.688;2022-12-15T14:38:45;21.90;22.50
20610;DHT22;10463;52.378;9.688;2022-12-15T14:41:37;21.90;22.50
20610;DHT22;10463;52.378;9.688;2022-12-15T14:44:31;21.90;22.40
20610;DHT22;10463;52.378;9.688;2022-12-15T14:47:21;21.90;22.40
20610;DHT22;10463;52.378;9.688;2022-12-15T14:50:10;21.90;22.30
20610;DHT22;10463;52.378;9.688;2022-12-15T14:52:59;21.90;22.30
20610;DHT22;10463;52.378;9.688;2022-12-15T14:55:46;21.90;22.30
20610;DHT22;10463;52.378;9.688;2022-12-15T14:58:34;21.90;22.30
20610;DHT22;10463;52.378;9.688;2022-12-15T15:01:27;21.90;22.30
20610;DHT22;10463;52.378;9.688;2022-12-15T15:04:24;22.00;22.30
20610;DHT22;10463;52.378;9.688;2022-12-15T15:07:17;22.00;22.30
20610;DHT22;10463;52.378;9.688;2022-12-15T15:10:19;22.00;22.30
20610;DHT22;10463;52.378;9.688;2022-12-15T15:13:04;22.00;22.30
20610;DHT22;10463;52.378;9.688;2022-12-15T15:15:53;21.90;22.20
20610;DHT22;10463;52.378;9.688;2022-12-15T15:18:40;22.00;22.20
20610;DHT22;10463;52.378;9.688;2022-12-15T15:21:28;22.00;22.20
20610;DHT22;10463;52.378;9.688;2022-12-15T15:24:24;21.90;22.20
20610;DHT22;10463;52.378;9.688;2022-12-15T15:27:25;22.00;22.20
20610;DHT22;10463;52.378;9.688;2022-12-15T15:30:19;22.00;22.20
20610;DHT22;10463;52.378;9.688;2022-12-15T15:33:04;21.90;22.20
20610;DHT22;10463;52.378;9.688;2022-12-15T15:35:56;21.90;22.10
20610;DHT22;10463;52.378;9.688;2022-12-15T15:38:42;21.90;22.10
20610;DHT22;10463;52.378;9.688;2022-12-15T15:41:32;21.90;22.10
20610;DHT22;10463;52.378;9.688;2022-12-15T15:44:16;21.90;22.10
20610;DHT22;10463;52.378;9.688;2022-12-15T15:47:01;21.90;22.20
20610;DHT22;10463;52.378;9.688;2022-12-15T15:49:46;21.90;22.10
20610;DHT22;10463;52.378;9.688;2022-12-15T15:52:34;21.90;22.20
20610;DHT22;10463;52.378;9.688;2022-12-15T15:55:24;21.90;22.20
20610;DHT22;10463;52.378;9.688;2022-12-15T15:58:11;21.90;22.10
20610;DHT22;10463;52.378;9.688;2022-12-15T16:00:56;21.90;22.10
20610;DHT22;10463;52.378;9.688;2022-12-15T16:03:41;21.90;22.10
20610;DHT22;10463;52.378;9.688;2022-12-15T16:06:25;21.90;22.10
20610;DHT22;10463;52.378;9.688;2022-12-15T16:09:13;21.90;22.10
20610;DHT22;10463;52.378;9.688;2022-12-15T16:11:58;21.90;22.20
20610;DHT22;10463;52.378;9.688;2022-12-15T16:14:44;21.90;22.70
20610;DHT22;10463;52.378;9.688;2022-12-15T16:17:29;21.90;22.20
20610;DHT22;10463;52.378;9.688;2022-12-15T16:20:16;21.90;22.20
20610;DHT22;10463;52.378;9.688;2022-12-15T16:23:04;21.90;22.20
20610;DHT22;10463;52.378;9.688;2022-12-15T16:25:54;21.90;22.20
20610;DHT22;10463;52.378;9.688;2022-12-15T16:28:39;21.80;22.10
20610;DHT22;10463;52.378;9.688;2022-12-15T16:31:29;21.90;22.20
20610;DHT22;10463;52.378;9.688;2022-12-15T16:34:14;21.90;22.20
20610;DHT22;10463;52.378;9.688;2022-12-15T16:37:05;21.80;22.20
20610;DHT22;10463;52.378;9.688;2022-12-15T16:39:52;21.80;22.10
20610;DHT22;10463;52.378;9.688;2022-12-15T16:42:38;21.80;22.10
20610;DHT22;10463;52.378;9.688;2022-12-15T16:45:25;21.80;22.10
20610;DHT22;10463;52.378;9.688;2022-12-15T16:48:11;21.80;22.10
20610;DHT22;10463;52.378;9.688;2022-12-15T16:50:57;21.80;22.10
20610;DHT22;10463;52.378;9.688;2022-12-15T16:53:42;21.80;22.10
20610;DHT22;10463;52.378;9.688;2022-12-15T16:56:28;21.80;22.10
20610;DHT22;10463;52.378;9.688;2022-12-15T16:59:16;21.80;22.10
20610;DHT22;10463;52.378;9.688;2022-12-15T17:02:08;21.80;22.10
20610;DHT22;10463;52.378;9.688;2022-12-15T17:04:59;21.80;22.10
20610;DHT22;10463;52.378;9.688;2022-12-15T17:07:49;21.80;22.10
20610;DHT22;10463;52.378;9.688;2022-12-15T17:10:34;21.80;22.10
20610;DHT22;10463;52.378;9.688;2022-12-15T17:13:28;21.80;22.10
20610;DHT22;10463;52.378;9.688;2022-12-15T17:16:17;21.80;22.10
20610;DHT22;10463;52.378;9.688;2022-12-15T17:19:01;21.80;22.10
20610;DHT22;10463;52.378;9.688;2022-12-15T17:21:48;21.80;22.10
20610;DHT22;10463;52.378;9.688;2022-12-15T17:24:34;21.70;22.00
20610;DHT22;10463;52.378;9.688;2022-12-15T17:27:24;21.70;22.00
20610;DHT22;10463;52.378;9.688;2022-12-15T17:30:13;21.70;22.10
20610;DHT22;10463;52.378;9.688;2022-12-15T17:33:00;21.70;22.10
20610;DHT22;10463;52.378;9.688;2022-12-15T17:35:45;21.70;22.00
20610;DHT22;10463;52.378;9.688;2022-12-15T17:38:30;21.70;22.00
20610;DHT22;10463;52.378;9.688;2022-12-15T17:41:15;21.70;22.10
20610;DHT22;10463;52.378;9.688;2022-12-15T17:43:59;21.70;22.10
20610;DHT22;10463;52.378;9.688;2022-12-15T17:46:44;21.70;22.10
20610;DHT22;10463;52.378;9.688;2022-12-15T17:49:30;21.70;22.10
20610;DHT22;10463;52.378;9.688;2022-12-15T17:52:26;21.60;22.00
20610;DHT22;10463;52.378;9.688;2022-12-15T17:55:22;21.60;22.00
20610;DHT22;10463;52.378;9.688;2022-12-15T17:58:16;21.60;22.00
20610;DHT22;10463;52.378;9.688;2022-12-15T18:01:02;21.60;22.00